createdAt,value
2022-12-08T00:00:34.033Z,3.37
2022-12-08T00:01:33.523Z,3.37
2022-12-08T00:02:33.933Z,3.37
2022-12-08T00:03:33.805Z,3.40
2022-12-08T00:04:33.470Z,3.36
2022-12-08T00:05:33.827Z,3.37
2022-12-08T00:06:33.538Z,3.32
2022-12-08T00:07:33.761Z,3.32
2022-12-08T00:08:34.114Z,3.34
2022-12-08T00:09:38.755Z,3.32
2022-12-08T00:10:49.044Z,3.32
2022-12-08T00:11:33.669Z,3.31
2022-12-08T00:12:33.858Z,3.28
2022-12-08T00:13:33.557Z,3.25
2022-12-08T00:14:34.580Z,3.23
2022-12-08T00:15:33.665Z,3.22
2022-12-08T00:16:32.728Z,3.21
2022-12-08T00:17:33.406Z,3.19
2022-12-08T00:18:33.598Z,3.21
2022-12-08T00:19:33.612Z,3.18
2022-12-08T00:20:33.516Z,3.16
2022-12-08T00:21:33.743Z,3.14
2022-12-08T00:22:33.490Z,3.13
2022-12-08T00:23:33.532Z,3.11
2022-12-08T00:24:33.425Z,3.10
2022-12-08T00:25:33.533Z,3.08
2022-12-08T00:26:33.490Z,3.08
2022-12-08T00:27:33.709Z,3.08
2022-12-08T00:28:33.422Z,3.07
2022-12-08T00:29:33.372Z,3.11
2022-12-08T00:30:33.371Z,3.11
2022-12-08T00:31:33.541Z,3.13
2022-12-08T00:32:33.541Z,3.16
2022-12-08T00:33:33.361Z,3.13
2022-12-08T00:34:33.238Z,3.14
2022-12-08T00:35:34.846Z,3.21
2022-12-08T00:36:33.355Z,3.19
2022-12-08T00:37:33.354Z,3.22
2022-12-08T00:38:34.028Z,3.23
2022-12-08T00:39:33.553Z,3.23
2022-12-08T00:40:33.443Z,3.23
2022-12-08T00:41:33.241Z,3.25
2022-12-08T00:42:33.217Z,3.29
2022-12-08T00:43:34.854Z,3.31
2022-12-08T00:44:33.530Z,3.31
2022-12-08T00:45:33.360Z,3.31
2022-12-08T00:46:33.241Z,3.37
2022-12-08T00:47:33.203Z,3.36
2022-12-08T00:48:33.245Z,3.37
2022-12-08T00:49:33.289Z,3.41
2022-12-08T00:50:33.228Z,3.41
2022-12-08T00:51:33.122Z,3.42
2022-12-08T00:52:33.285Z,3.45
2022-12-08T00:53:32.913Z,3.44
2022-12-08T00:54:33.603Z,3.45
2022-12-08T00:55:33.255Z,3.45
2022-12-08T00:56:33.144Z,3.47
2022-12-08T00:57:33.359Z,3.47
2022-12-08T00:58:33.066Z,3.47
2022-12-08T00:59:33.042Z,3.47
2022-12-08T01:00:33.510Z,3.45
2022-12-08T01:01:33.932Z,3.47
2022-12-08T01:02:33.072Z,3.50
2022-12-08T01:03:33.376Z,3.47
2022-12-08T01:04:33.174Z,3.47
2022-12-08T01:06:16.820Z,3.48
2022-12-08T01:07:16.453Z,3.48
2022-12-08T01:08:16.516Z,3.48
2022-12-08T01:09:16.687Z,3.50
2022-12-08T01:10:16.419Z,3.51
2022-12-08T01:11:16.832Z,3.51
2022-12-08T01:12:16.234Z,3.51
2022-12-08T01:13:16.423Z,3.51
2022-12-08T01:14:16.392Z,3.55
2022-12-08T01:15:16.444Z,3.53
2022-12-08T01:16:16.108Z,3.53
2022-12-08T01:17:16.222Z,3.53
2022-12-08T01:18:16.340Z,3.56
2022-12-08T01:19:16.252Z,3.53
2022-12-08T01:20:16.378Z,3.53
2022-12-08T01:21:16.492Z,3.56
2022-12-08T01:22:16.137Z,3.55
2022-12-08T01:23:16.781Z,3.56
2022-12-08T01:24:16.083Z,3.56
2022-12-08T01:25:16.121Z,3.56
2022-12-08T01:26:16.301Z,3.56
2022-12-08T01:27:16.291Z,3.56
2022-12-08T01:28:16.539Z,3.56
2022-12-08T01:29:16.123Z,3.56
2022-12-08T01:30:16.097Z,3.56
2022-12-08T01:31:16.943Z,3.56
2022-12-08T01:32:16.106Z,3.56
2022-12-08T01:33:16.305Z,3.56
2022-12-08T01:34:15.941Z,3.55
2022-12-08T01:35:16.130Z,3.56
2022-12-08T01:36:16.004Z,3.53
2022-12-08T01:37:18.886Z,3.55
2022-12-08T01:38:16.081Z,3.55
2022-12-08T01:39:16.221Z,3.58
2022-12-08T01:40:15.963Z,3.56
2022-12-08T01:41:16.290Z,3.56
2022-12-08T01:42:15.940Z,3.55
2022-12-08T01:43:16.500Z,3.56
2022-12-08T01:44:16.338Z,3.56
2022-12-08T01:45:16.195Z,3.58
2022-12-08T01:46:15.833Z,3.58
2022-12-08T01:47:15.788Z,3.56
2022-12-08T01:48:16.165Z,3.58
2022-12-08T01:49:17.525Z,3.60
2022-12-08T01:50:16.265Z,3.58
2022-12-08T01:51:15.764Z,3.59
2022-12-08T01:52:16.282Z,3.59
2022-12-08T01:53:15.838Z,3.60
2022-12-08T01:54:15.933Z,3.60
2022-12-08T01:55:15.713Z,3.60
2022-12-08T01:56:52.053Z,3.60
2022-12-08T01:57:16.221Z,3.60
2022-12-08T01:58:15.751Z,3.62
2022-12-08T01:59:15.951Z,3.62
2022-12-08T02:00:16.965Z,3.60
2022-12-08T02:01:15.906Z,3.60
2022-12-08T02:02:15.938Z,3.62
2022-12-08T02:03:15.915Z,3.62
2022-12-08T02:04:15.700Z,3.60
2022-12-08T02:05:16.059Z,3.62
2022-12-08T02:06:15.611Z,3.63
2022-12-08T02:07:15.925Z,3.62
2022-12-08T02:08:15.755Z,3.60
2022-12-08T02:09:16.307Z,3.62
2022-12-08T02:10:16.227Z,3.63
2022-12-08T02:11:16.083Z,3.65
2022-12-08T02:12:15.683Z,3.63
2022-12-08T02:13:15.624Z,3.63
2022-12-08T02:14:15.709Z,3.63
2022-12-08T02:15:15.604Z,3.65
2022-12-08T02:16:15.904Z,3.63
2022-12-08T02:17:15.804Z,3.62
2022-12-08T02:18:15.655Z,3.62
2022-12-08T02:19:31.570Z,3.62
2022-12-08T02:20:15.714Z,3.65
2022-12-08T02:21:15.737Z,3.63
2022-12-08T02:22:15.680Z,3.65
2022-12-08T02:23:16.063Z,3.63
2022-12-08T02:24:15.512Z,3.65
2022-12-08T02:25:15.721Z,3.65
2022-12-08T02:26:15.609Z,3.63
2022-12-08T02:27:16.431Z,3.63
2022-12-08T02:28:15.666Z,3.63
2022-12-08T02:29:15.940Z,3.63
2022-12-08T02:30:15.537Z,3.66
2022-12-08T02:31:15.807Z,3.65
2022-12-08T02:32:15.865Z,3.63
2022-12-08T02:33:15.573Z,3.65
2022-12-08T02:34:15.402Z,3.66
2022-12-08T02:35:15.608Z,3.66
2022-12-08T02:36:15.688Z,3.65
2022-12-08T02:37:15.894Z,3.66
2022-12-08T02:38:15.524Z,3.66
2022-12-08T02:39:15.639Z,3.68
2022-12-08T02:40:16.288Z,3.68
2022-12-08T02:41:15.405Z,3.69
2022-12-08T02:42:15.484Z,3.68
2022-12-08T02:43:15.221Z,3.68
2022-12-08T02:44:15.321Z,3.69
2022-12-08T02:45:15.408Z,3.69
2022-12-08T02:46:15.584Z,3.69
2022-12-08T02:47:15.233Z,3.69
2022-12-08T02:48:15.415Z,3.69
2022-12-08T02:49:15.241Z,3.73
2022-12-08T02:50:15.392Z,3.70
2022-12-08T02:51:15.350Z,3.69
2022-12-08T02:52:15.365Z,3.70
2022-12-08T02:53:59.398Z,3.73
2022-12-08T02:55:00.024Z,3.70
2022-12-08T02:55:59.583Z,3.69
2022-12-08T02:56:59.447Z,3.70
2022-12-08T02:57:59.480Z,3.74
2022-12-08T02:58:59.369Z,3.73
2022-12-08T02:59:59.614Z,3.73
2022-12-08T03:00:59.583Z,3.74
2022-12-08T03:01:59.579Z,3.74
2022-12-08T03:03:00.210Z,3.74
2022-12-08T03:03:59.471Z,3.73
2022-12-08T03:04:59.719Z,3.74
2022-12-08T03:05:59.538Z,3.74
2022-12-08T03:06:59.322Z,3.74
2022-12-08T03:07:59.351Z,3.76
2022-12-08T03:08:59.359Z,3.76
2022-12-08T03:09:59.587Z,3.74
2022-12-08T03:11:00.103Z,3.76
2022-12-08T03:11:59.665Z,3.76
2022-12-08T03:12:59.591Z,3.76
2022-12-08T03:14:01.158Z,3.76
2022-12-08T03:14:59.507Z,3.74
2022-12-08T03:15:59.439Z,3.78
2022-12-08T03:16:59.294Z,3.76
2022-12-08T03:17:59.496Z,3.77
2022-12-08T03:18:59.360Z,3.77
2022-12-08T03:19:59.230Z,3.77
2022-12-08T03:20:59.296Z,3.78
2022-12-08T03:22:00.111Z,3.77
2022-12-08T03:22:59.428Z,3.76
2022-12-08T03:23:59.516Z,3.77
2022-12-08T03:24:59.251Z,3.78
2022-12-08T03:25:59.316Z,3.77
2022-12-08T03:26:59.278Z,3.78
2022-12-08T03:27:59.215Z,3.78
2022-12-08T03:28:59.170Z,3.77
2022-12-08T03:29:59.235Z,3.78
2022-12-08T03:30:59.451Z,3.78
2022-12-08T03:31:59.487Z,3.78
2022-12-08T03:32:59.893Z,3.77
2022-12-08T03:33:59.727Z,3.77
2022-12-08T03:34:59.344Z,3.78
2022-12-08T03:35:59.735Z,3.77
2022-12-08T03:36:59.401Z,3.78
2022-12-08T03:38:58.353Z,3.80
2022-12-08T03:39:59.420Z,3.78
2022-12-08T03:40:59.344Z,3.76
2022-12-08T03:41:59.143Z,3.80
2022-12-08T03:42:59.177Z,3.77
2022-12-08T03:43:59.285Z,3.78
2022-12-08T03:44:59.180Z,3.78
2022-12-08T03:45:59.100Z,3.77
2022-12-08T03:46:59.161Z,3.80
2022-12-08T03:47:59.133Z,3.80
2022-12-08T03:48:59.103Z,3.78
2022-12-08T03:49:59.144Z,3.78
2022-12-08T03:50:59.151Z,3.80
2022-12-08T03:51:59.082Z,3.78
2022-12-08T03:52:59.029Z,3.77
2022-12-08T03:53:59.145Z,3.78
2022-12-08T03:54:59.069Z,3.78
2022-12-08T03:55:59.010Z,3.78
2022-12-08T03:56:59.001Z,3.78
2022-12-08T03:57:59.080Z,3.78
2022-12-08T03:58:59.038Z,3.77
2022-12-08T03:59:58.966Z,3.80
2022-12-08T04:00:59.001Z,3.78
2022-12-08T04:01:59.003Z,3.77
2022-12-08T04:02:59.050Z,3.78
2022-12-08T04:03:59.006Z,3.78
2022-12-08T04:04:58.925Z,3.80
2022-12-08T04:05:58.938Z,3.77
2022-12-08T04:06:58.874Z,3.80
2022-12-08T04:07:58.985Z,3.78
2022-12-08T04:08:58.864Z,3.78
2022-12-08T04:09:58.925Z,3.78
2022-12-08T04:10:58.890Z,3.78
2022-12-08T04:11:58.895Z,3.77
2022-12-08T04:12:58.839Z,3.76
2022-12-08T04:13:58.889Z,3.78
2022-12-08T04:14:58.811Z,3.78
2022-12-08T04:15:58.919Z,3.78
2022-12-08T04:16:58.807Z,3.78
2022-12-08T04:17:58.854Z,3.77
2022-12-08T04:18:58.771Z,3.78
2022-12-08T04:19:58.753Z,3.78
2022-12-08T04:20:58.722Z,3.77
2022-12-08T04:21:58.731Z,3.80
2022-12-08T04:22:58.743Z,3.78
2022-12-08T04:24:01.233Z,3.78
2022-12-08T04:24:58.751Z,3.77
2022-12-08T04:25:58.727Z,3.78
2022-12-08T04:26:58.722Z,3.77
2022-12-08T04:27:58.678Z,3.78
2022-12-08T04:28:58.704Z,3.78
2022-12-08T04:29:58.748Z,3.77
2022-12-08T04:30:58.713Z,3.78
2022-12-08T04:31:58.780Z,3.78
2022-12-08T04:32:58.680Z,3.78
2022-12-08T04:33:58.644Z,3.78
2022-12-08T04:34:58.633Z,3.77
2022-12-08T04:35:58.633Z,3.78
2022-12-08T04:36:58.584Z,3.78
2022-12-08T04:37:58.581Z,3.78
2022-12-08T04:38:58.628Z,3.78
2022-12-08T04:39:58.576Z,3.80
2022-12-08T04:40:58.532Z,3.80
2022-12-08T04:41:58.557Z,3.80
2022-12-08T04:42:58.556Z,3.80
2022-12-08T04:43:58.547Z,3.80
2022-12-08T04:44:58.508Z,3.80
2022-12-08T04:45:58.561Z,3.80
2022-12-08T04:46:58.560Z,3.78
2022-12-08T04:47:58.509Z,3.80
2022-12-08T04:48:58.492Z,3.80
2022-12-08T04:49:58.528Z,3.80
2022-12-08T04:50:58.460Z,3.80
2022-12-08T04:51:58.472Z,3.80
2022-12-08T04:52:58.446Z,3.80
2022-12-08T04:53:58.449Z,3.80
2022-12-08T04:54:58.428Z,3.80
2022-12-08T04:55:58.449Z,3.80
2022-12-08T04:56:58.380Z,3.78
2022-12-08T04:57:58.372Z,3.78
2022-12-08T04:58:58.489Z,3.78
2022-12-08T04:59:58.388Z,3.78
2022-12-08T05:00:58.501Z,3.78
2022-12-08T05:01:58.462Z,3.78
2022-12-08T05:02:58.429Z,3.80
2022-12-08T05:03:58.357Z,3.80
2022-12-08T05:04:58.305Z,3.80
2022-12-08T05:05:58.320Z,3.78
2022-12-08T05:06:58.294Z,3.78
2022-12-08T05:07:58.351Z,3.78
2022-12-08T05:08:58.360Z,3.80
2022-12-08T05:09:58.309Z,3.78
2022-12-08T05:10:58.260Z,3.80
2022-12-08T05:11:58.233Z,3.78
2022-12-08T05:12:58.208Z,3.77
2022-12-08T05:13:58.234Z,3.77
2022-12-08T05:14:58.239Z,3.80
2022-12-08T05:15:58.321Z,3.80
2022-12-08T05:16:58.201Z,3.78
2022-12-08T05:17:58.170Z,3.78
2022-12-08T05:18:58.144Z,3.76
2022-12-08T05:19:58.183Z,3.76
2022-12-08T05:20:58.146Z,3.74
2022-12-08T05:21:58.229Z,3.73
2022-12-08T05:22:58.144Z,3.70
2022-12-08T05:23:58.182Z,3.70
2022-12-08T05:24:58.205Z,3.70
2022-12-08T05:25:58.106Z,3.70
2022-12-08T05:26:58.111Z,3.73
2022-12-08T05:28:17.568Z,3.69
2022-12-08T05:28:58.092Z,3.69
2022-12-08T05:29:58.094Z,3.68
2022-12-08T05:30:58.022Z,3.66
2022-12-08T05:31:58.099Z,3.66
2022-12-08T05:32:58.061Z,3.66
2022-12-08T05:34:02.743Z,3.66
2022-12-08T05:34:58.009Z,3.68
2022-12-08T05:35:58.098Z,3.66
2022-12-08T05:36:57.963Z,3.66
2022-12-08T05:37:58.029Z,3.66
2022-12-08T05:38:57.975Z,3.66
2022-12-08T05:39:58.029Z,3.66
2022-12-08T05:40:57.943Z,3.66
2022-12-08T05:41:57.969Z,3.69
2022-12-08T05:42:57.907Z,3.68
2022-12-08T05:43:57.934Z,3.66
2022-12-08T05:44:57.882Z,3.65
2022-12-08T05:45:57.920Z,3.66
2022-12-08T05:46:57.875Z,3.65
2022-12-08T05:47:57.830Z,3.68
2022-12-08T05:48:57.969Z,3.66
2022-12-08T05:49:57.824Z,3.68
2022-12-08T05:50:57.843Z,3.69
2022-12-08T05:51:57.860Z,3.68
2022-12-08T05:52:57.877Z,3.66
2022-12-08T05:53:57.801Z,3.66
2022-12-08T05:54:57.787Z,3.69
2022-12-08T05:55:57.748Z,3.68
2022-12-08T05:56:57.784Z,3.68
2022-12-08T05:57:58.607Z,3.68
2022-12-08T05:58:57.714Z,3.69
2022-12-08T05:59:57.705Z,3.69
2022-12-08T06:00:57.686Z,3.69
2022-12-08T06:01:57.895Z,3.69
2022-12-08T06:02:57.879Z,3.70
2022-12-08T06:03:57.672Z,3.69
2022-12-08T06:04:57.670Z,3.69
2022-12-08T06:05:57.650Z,3.69
2022-12-08T06:06:57.648Z,3.68
2022-12-08T06:07:57.686Z,3.68
2022-12-08T06:08:57.614Z,3.69
2022-12-08T06:09:57.628Z,3.69
2022-12-08T06:10:57.594Z,3.68
2022-12-08T06:11:57.620Z,3.70
2022-12-08T06:12:57.583Z,3.70
2022-12-08T06:13:57.606Z,3.68
2022-12-08T06:14:57.573Z,3.68
2022-12-08T06:15:57.581Z,3.68
2022-12-08T06:16:57.619Z,3.69
2022-12-08T06:17:57.521Z,3.68
2022-12-08T06:18:57.542Z,3.68
2022-12-08T06:19:57.511Z,3.68
2022-12-08T06:20:57.502Z,3.68
2022-12-08T06:21:57.489Z,3.69
2022-12-08T06:22:57.459Z,3.69
2022-12-08T06:23:57.634Z,3.68
2022-12-08T06:24:57.457Z,3.68
2022-12-08T06:25:57.465Z,3.68
2022-12-08T06:26:57.437Z,3.68
2022-12-08T06:27:57.443Z,3.69
2022-12-08T06:28:57.428Z,3.68
2022-12-08T06:29:57.431Z,3.69
2022-12-08T06:30:57.402Z,3.68
2022-12-08T06:31:57.472Z,3.66
2022-12-08T06:32:57.372Z,3.63
2022-12-08T06:33:57.364Z,3.63
2022-12-08T06:34:57.337Z,3.65
2022-12-08T06:35:57.343Z,3.65
2022-12-08T06:36:57.333Z,3.65
2022-12-08T06:37:57.396Z,3.62
2022-12-08T06:38:57.305Z,3.60
2022-12-08T06:39:57.316Z,3.59
2022-12-08T06:41:03.749Z,3.63
2022-12-08T06:42:05.538Z,3.62
2022-12-08T06:42:58.435Z,3.62
2022-12-08T06:43:57.342Z,3.62
2022-12-08T06:44:57.254Z,3.62
2022-12-08T06:45:57.320Z,3.62
2022-12-08T06:46:57.257Z,3.60
2022-12-08T06:47:57.240Z,3.58
2022-12-08T06:48:57.271Z,3.59
2022-12-08T06:49:57.210Z,3.59
2022-12-08T06:50:57.206Z,3.59
2022-12-08T06:51:57.198Z,3.59
2022-12-08T06:53:04.797Z,3.58
2022-12-08T06:53:57.178Z,3.58
2022-12-08T06:54:57.101Z,3.59
2022-12-08T06:55:59.665Z,3.59
2022-12-08T06:56:57.072Z,3.58
2022-12-08T06:57:57.253Z,3.59
2022-12-08T06:58:57.071Z,3.58
2022-12-08T06:59:57.094Z,3.58
2022-12-08T07:00:57.111Z,3.59
2022-12-08T07:01:57.100Z,3.56
2022-12-08T07:02:57.150Z,3.55
2022-12-08T07:03:57.051Z,3.56
2022-12-08T07:04:57.022Z,3.56
2022-12-08T07:06:03.253Z,3.56
2022-12-08T07:06:56.996Z,3.55
2022-12-08T07:07:57.095Z,3.56
2022-12-08T07:08:56.984Z,3.55
2022-12-08T07:09:56.978Z,3.53
2022-12-08T07:10:56.929Z,3.55
2022-12-08T07:11:56.901Z,3.53
2022-12-08T07:12:56.905Z,3.53
2022-12-08T07:13:56.910Z,3.51
2022-12-08T07:14:56.888Z,3.51
2022-12-08T07:15:56.906Z,3.51
2022-12-08T07:16:56.993Z,3.51
2022-12-08T07:18:00.107Z,3.50
2022-12-08T07:18:56.855Z,3.48
2022-12-08T07:19:56.831Z,3.48
2022-12-08T07:20:56.810Z,3.51
2022-12-08T07:21:56.813Z,3.47
2022-12-08T07:22:57.040Z,3.47
2022-12-08T07:23:58.012Z,3.48
2022-12-08T07:24:56.768Z,3.45
2022-12-08T07:25:56.804Z,3.45
2022-12-08T07:26:56.803Z,3.44
2022-12-08T07:27:56.740Z,3.44
2022-12-08T07:28:56.749Z,3.44
2022-12-08T07:29:56.746Z,3.44
2022-12-08T07:30:56.748Z,3.41
2022-12-08T07:31:56.696Z,3.37
2022-12-08T07:32:56.714Z,3.40
2022-12-08T07:33:56.690Z,3.37
2022-12-08T07:34:56.670Z,3.40
2022-12-08T07:35:56.668Z,3.41
2022-12-08T07:36:56.644Z,3.40
2022-12-08T07:37:56.643Z,3.40
2022-12-08T07:38:56.679Z,3.40
2022-12-08T07:39:56.676Z,3.40
2022-12-08T07:40:56.630Z,3.40
2022-12-08T07:41:56.614Z,3.40
2022-12-08T07:42:56.625Z,3.40
2022-12-08T07:43:56.627Z,3.41
2022-12-08T07:44:56.576Z,3.41
2022-12-08T07:45:56.752Z,3.40
2022-12-08T07:46:56.554Z,3.41
2022-12-08T07:47:56.534Z,3.42
2022-12-08T07:48:56.610Z,3.41
2022-12-08T07:49:56.573Z,3.44
2022-12-08T07:50:56.504Z,3.44
2022-12-08T07:51:56.526Z,3.42
2022-12-08T07:52:56.508Z,3.44
2022-12-08T07:53:56.490Z,3.44
2022-12-08T07:54:56.481Z,3.45
2022-12-08T07:55:56.524Z,3.44
2022-12-08T07:56:56.450Z,3.44
2022-12-08T07:57:56.448Z,3.45
2022-12-08T07:58:56.447Z,3.45
2022-12-08T07:59:56.554Z,3.44
2022-12-08T08:00:56.518Z,3.44
2022-12-08T08:02:22.411Z,3.44
2022-12-08T08:02:56.504Z,3.45
2022-12-08T08:03:56.377Z,3.45
2022-12-08T08:04:56.418Z,3.45
2022-12-08T08:05:56.359Z,3.45
2022-12-08T08:06:56.354Z,3.47
2022-12-08T08:07:56.395Z,3.45
2022-12-08T08:08:56.349Z,3.44
2022-12-08T08:09:56.312Z,3.45
2022-12-08T08:10:56.333Z,3.45
2022-12-08T08:12:29.086Z,3.44
2022-12-08T08:12:56.317Z,3.45
2022-12-08T08:13:56.249Z,3.45
2022-12-08T08:14:56.286Z,3.42
2022-12-08T08:15:56.400Z,3.42
2022-12-08T08:16:56.523Z,3.41
2022-12-08T08:17:56.222Z,3.42
2022-12-08T08:18:56.256Z,3.42
2022-12-08T08:19:56.220Z,3.41
2022-12-08T08:20:57.979Z,3.41
2022-12-08T08:21:56.186Z,3.41
2022-12-08T08:22:56.176Z,3.41
2022-12-08T08:23:56.159Z,3.40
2022-12-08T08:24:56.230Z,3.41
2022-12-08T08:25:56.179Z,3.36
2022-12-08T08:26:56.142Z,3.34
2022-12-08T08:27:56.159Z,3.34
2022-12-08T08:28:56.126Z,3.31
2022-12-08T08:29:56.100Z,3.32
2022-12-08T08:30:56.138Z,3.31
2022-12-08T08:31:56.112Z,3.26
2022-12-08T08:32:56.063Z,3.25
2022-12-08T08:33:56.050Z,3.22
2022-12-08T08:34:56.123Z,3.21
2022-12-08T08:35:56.082Z,3.18
2022-12-08T08:36:56.069Z,3.19
2022-12-08T08:37:56.045Z,3.19
2022-12-08T08:38:56.017Z,3.22
2022-12-08T08:39:56.021Z,3.21
2022-12-08T08:40:56.026Z,3.18
2022-12-08T08:41:56.019Z,3.14
2022-12-08T08:42:55.988Z,3.13
2022-12-08T08:43:55.973Z,3.10
2022-12-08T08:44:56.048Z,3.10
2022-12-08T08:45:56.002Z,3.07
2022-12-08T08:46:55.986Z,3.07
2022-12-08T08:47:55.950Z,3.07
2022-12-08T08:48:55.988Z,3.07
2022-12-08T08:49:55.899Z,3.10
2022-12-08T08:50:55.923Z,3.08
2022-12-08T08:51:55.999Z,3.05
2022-12-08T08:52:55.893Z,3.07
2022-12-08T08:53:55.858Z,3.04
2022-12-08T08:54:55.881Z,3.04
2022-12-08T08:55:55.860Z,3.07
2022-12-08T08:56:55.836Z,3.05
2022-12-08T08:57:55.818Z,3.01
2022-12-08T08:58:55.878Z,3.03
2022-12-08T08:59:55.821Z,3.03
2022-12-08T09:00:55.820Z,3.03
2022-12-08T09:01:55.893Z,3.03
2022-12-08T09:02:55.806Z,3.04
2022-12-08T09:03:55.789Z,3.04
2022-12-08T09:04:55.838Z,3.04
2022-12-08T09:05:55.776Z,3.04
2022-12-08T09:06:55.742Z,3.05
2022-12-08T09:07:55.794Z,3.07
2022-12-08T09:08:55.709Z,3.08
2022-12-08T09:10:01.268Z,3.07
2022-12-08T09:10:55.746Z,3.11
2022-12-08T09:11:55.704Z,3.11
2022-12-08T09:12:55.679Z,3.11
2022-12-08T09:13:55.655Z,3.10
2022-12-08T09:14:55.690Z,3.11
2022-12-08T09:15:55.685Z,3.14
2022-12-08T09:16:55.628Z,3.13
2022-12-08T09:17:55.640Z,3.13
2022-12-08T09:18:55.610Z,3.14
2022-12-08T09:19:55.591Z,3.16
2022-12-08T09:20:55.681Z,3.18
2022-12-08T09:21:55.632Z,3.19
2022-12-08T09:22:55.579Z,3.21
2022-12-08T09:23:55.578Z,3.25
2022-12-08T09:24:55.592Z,3.22
2022-12-08T09:25:55.537Z,3.25
2022-12-08T09:26:55.531Z,3.25
2022-12-08T09:27:55.509Z,3.26
2022-12-08T09:28:55.516Z,3.25
2022-12-08T09:29:55.490Z,3.22
2022-12-08T09:30:55.567Z,3.19
2022-12-08T09:31:55.523Z,3.19
2022-12-08T09:32:55.465Z,3.18
2022-12-08T09:33:55.509Z,3.16
2022-12-08T09:34:55.494Z,3.13
2022-12-08T09:35:55.434Z,3.14
2022-12-08T09:36:55.436Z,3.18
2022-12-08T09:37:55.438Z,3.18
2022-12-08T09:38:55.430Z,3.21
2022-12-08T09:39:55.412Z,3.21
2022-12-08T09:40:55.397Z,3.22
2022-12-08T09:41:55.383Z,3.23
2022-12-08T09:42:55.362Z,3.22
2022-12-08T09:43:55.409Z,3.25
2022-12-08T09:44:55.357Z,3.26
2022-12-08T09:45:55.314Z,3.26
2022-12-08T09:46:55.403Z,3.28
2022-12-08T09:47:55.303Z,3.29
2022-12-08T09:48:55.304Z,3.32
2022-12-08T09:49:55.315Z,3.32
2022-12-08T09:50:55.291Z,3.31
2022-12-08T09:51:55.264Z,3.34
2022-12-08T09:52:55.253Z,3.34
2022-12-08T09:53:55.289Z,3.34
2022-12-08T09:54:55.231Z,3.34
2022-12-08T09:55:55.218Z,3.34
2022-12-08T09:56:55.235Z,3.37
2022-12-08T09:57:56.636Z,3.40
2022-12-08T09:58:55.193Z,3.40
2022-12-08T09:59:55.204Z,3.41
2022-12-08T10:00:55.190Z,3.41
2022-12-08T10:01:55.233Z,3.47
2022-12-08T10:02:55.141Z,3.45
2022-12-08T10:03:55.208Z,3.44
2022-12-08T10:04:55.195Z,3.45
2022-12-08T10:05:55.143Z,3.44
2022-12-08T10:06:55.126Z,3.50
2022-12-08T10:07:55.159Z,3.51
2022-12-08T10:08:55.110Z,3.53
2022-12-08T10:09:55.099Z,3.55
2022-12-08T10:10:55.105Z,3.59
2022-12-08T10:11:55.050Z,3.59
2022-12-08T10:12:55.076Z,3.62
2022-12-08T10:13:55.035Z,3.65
2022-12-08T10:14:55.047Z,3.68
2022-12-08T10:15:55.063Z,3.73
2022-12-08T10:16:55.069Z,3.74
2022-12-08T10:17:55.042Z,3.77
2022-12-08T10:18:54.982Z,3.80
2022-12-08T10:19:55.046Z,3.80
2022-12-08T10:20:55.031Z,3.81
2022-12-08T10:21:54.942Z,3.81
2022-12-08T10:22:54.995Z,3.83
2022-12-08T10:23:54.926Z,3.86
2022-12-08T10:24:54.919Z,3.87
2022-12-08T10:25:54.925Z,3.91
2022-12-08T10:26:54.932Z,3.91
2022-12-08T10:27:54.875Z,3.94
2022-12-08T10:28:54.882Z,3.92
2022-12-08T10:29:54.876Z,3.91
2022-12-08T10:30:54.978Z,3.94
2022-12-08T10:31:54.923Z,3.96
2022-12-08T10:32:54.875Z,3.96
2022-12-08T10:33:54.848Z,3.99
2022-12-08T10:34:56.401Z,4.01
2022-12-08T10:35:54.799Z,3.99
2022-12-08T10:36:54.872Z,4.02
2022-12-08T10:37:54.790Z,4.02
2022-12-08T10:38:54.787Z,4.05
2022-12-08T10:39:54.793Z,4.06
2022-12-08T10:40:54.756Z,4.05
2022-12-08T10:41:54.756Z,4.08
2022-12-08T10:42:54.792Z,4.10
2022-12-08T10:43:54.727Z,4.12
2022-12-08T10:44:54.712Z,4.13
2022-12-08T10:45:54.729Z,4.16
2022-12-08T10:46:54.837Z,4.16
2022-12-08T10:47:55.621Z,4.17
2022-12-08T10:48:54.675Z,4.17
2022-12-08T10:49:54.692Z,4.17
2022-12-08T10:50:54.659Z,4.20
2022-12-08T10:51:54.637Z,4.20
2022-12-08T10:52:54.651Z,4.22
2022-12-08T10:53:54.606Z,4.23
2022-12-08T10:54:54.629Z,4.24
2022-12-08T10:55:54.620Z,4.28
2022-12-08T10:56:54.608Z,4.28
2022-12-08T10:57:54.574Z,4.31
2022-12-08T10:58:54.590Z,4.31
2022-12-08T10:59:54.574Z,4.32
2022-12-08T11:00:54.623Z,4.34
2022-12-08T11:01:54.735Z,4.32
2022-12-08T11:02:54.635Z,4.32
2022-12-08T11:03:54.558Z,4.32
2022-12-08T11:04:54.509Z,4.31
2022-12-08T11:05:54.488Z,4.32
2022-12-08T11:06:54.549Z,4.32
2022-12-08T11:07:54.554Z,4.32
2022-12-08T11:08:54.508Z,4.31
2022-12-08T11:09:54.451Z,4.34
2022-12-08T11:10:54.449Z,4.31
2022-12-08T11:11:54.453Z,4.32
2022-12-08T11:12:54.464Z,4.31
2022-12-08T11:13:54.435Z,4.32
2022-12-08T11:14:54.421Z,4.34
2022-12-08T11:15:54.462Z,4.35
2022-12-08T11:16:54.473Z,4.34
2022-12-08T11:17:57.616Z,4.35
2022-12-08T11:18:54.394Z,4.35
2022-12-08T11:19:54.382Z,4.34
2022-12-08T11:20:54.365Z,4.34
2022-12-08T11:21:54.333Z,4.34
2022-12-08T11:22:54.320Z,4.31
2022-12-08T11:23:54.318Z,4.30
2022-12-08T11:24:54.343Z,4.28
2022-12-08T11:25:54.341Z,4.28
2022-12-08T11:26:54.320Z,4.28
2022-12-08T11:27:54.274Z,4.26
2022-12-08T11:28:54.295Z,4.28
2022-12-08T11:29:54.261Z,4.26
2022-12-08T11:30:54.252Z,4.26
2022-12-08T11:31:54.288Z,4.26
2022-12-08T11:32:54.229Z,4.24
2022-12-08T11:33:54.190Z,4.23
2022-12-08T11:34:54.214Z,4.24
2022-12-08T11:35:54.198Z,4.23
2022-12-08T11:36:54.200Z,4.23
2022-12-08T11:38:03.065Z,4.23
2022-12-08T11:38:54.167Z,4.22
2022-12-08T11:39:54.292Z,4.23
2022-12-08T11:40:54.197Z,4.23
2022-12-08T11:41:54.150Z,4.23
2022-12-08T11:42:54.165Z,4.23
2022-12-08T11:43:54.250Z,4.24
2022-12-08T11:44:54.177Z,4.23
2022-12-08T11:45:54.145Z,4.24
2022-12-08T11:46:54.138Z,4.24
2022-12-08T11:47:55.935Z,4.28
2022-12-08T11:48:54.161Z,4.24
2022-12-08T11:49:54.159Z,4.26
2022-12-08T11:50:54.078Z,4.26
2022-12-08T11:51:54.061Z,4.24
2022-12-08T11:52:54.191Z,4.24
2022-12-08T11:53:54.182Z,4.22
2022-12-08T11:54:54.089Z,4.26
2022-12-08T11:55:53.999Z,4.24
2022-12-08T11:56:53.980Z,4.23
2022-12-08T11:57:54.120Z,4.26
2022-12-08T11:58:54.769Z,4.28
2022-12-08T11:59:53.969Z,4.32
2022-12-08T12:00:54.051Z,4.32
2022-12-08T12:01:54.083Z,4.31
2022-12-08T12:02:53.949Z,4.31
2022-12-08T12:03:53.928Z,4.31
2022-12-08T12:04:53.971Z,4.30
2022-12-08T12:06:12.939Z,4.30
2022-12-08T12:06:55.439Z,4.28
2022-12-08T12:07:53.996Z,4.28
2022-12-08T12:08:53.908Z,4.28
2022-12-08T12:09:53.911Z,4.28
2022-12-08T12:10:53.867Z,4.28
2022-12-08T12:11:53.919Z,4.30
2022-12-08T12:12:54.764Z,4.28
2022-12-08T12:13:53.829Z,4.28
2022-12-08T12:14:53.824Z,4.30
2022-12-08T12:15:53.798Z,4.30
2022-12-08T12:16:54.020Z,4.31
2022-12-08T12:17:53.836Z,4.31
2022-12-08T12:18:53.902Z,4.32
2022-12-08T12:19:53.731Z,4.31
2022-12-08T12:20:53.700Z,4.30
2022-12-08T12:21:53.811Z,4.32
2022-12-08T12:22:53.712Z,4.32
2022-12-08T12:23:53.689Z,4.34
2022-12-08T12:24:53.815Z,4.34
2022-12-08T12:25:53.694Z,4.34
2022-12-08T12:26:53.668Z,4.34
2022-12-08T12:27:57.069Z,4.34
2022-12-08T12:28:53.734Z,4.34
2022-12-08T12:29:55.968Z,4.35
2022-12-08T12:30:53.708Z,4.34
2022-12-08T12:31:53.604Z,4.34
2022-12-08T12:32:53.605Z,4.32
2022-12-08T12:33:53.614Z,4.35
2022-12-08T12:34:53.574Z,4.35
2022-12-08T12:35:53.544Z,4.35
2022-12-08T12:36:53.570Z,4.35
2022-12-08T12:37:53.591Z,4.34
2022-12-08T12:38:53.565Z,4.32
2022-12-08T12:39:54.210Z,4.32
2022-12-08T12:40:53.542Z,4.31
2022-12-08T12:41:53.518Z,4.30
2022-12-08T12:42:53.542Z,4.28
2022-12-08T12:43:53.485Z,4.31
2022-12-08T12:44:53.523Z,4.28
2022-12-08T12:45:53.564Z,4.28
2022-12-08T12:46:53.439Z,4.26
2022-12-08T12:47:56.619Z,4.26
2022-12-08T12:48:53.440Z,4.26
2022-12-08T12:49:53.425Z,4.26
2022-12-08T12:50:53.459Z,4.24
2022-12-08T12:51:53.464Z,4.30
2022-12-08T12:52:53.367Z,4.30
2022-12-08T12:53:53.423Z,4.28
2022-12-08T12:54:53.401Z,4.28
2022-12-08T12:55:53.381Z,4.28
2022-12-08T12:56:53.347Z,4.28
2022-12-08T12:57:53.366Z,4.30
2022-12-08T12:58:53.324Z,4.30
2022-12-08T12:59:55.580Z,4.28
2022-12-08T13:00:53.303Z,4.30
2022-12-08T13:01:53.439Z,4.30
2022-12-08T13:02:53.321Z,4.31
2022-12-08T13:03:53.305Z,4.32
2022-12-08T13:04:53.316Z,4.32
2022-12-08T13:05:53.248Z,4.32
2022-12-08T13:06:53.233Z,4.34
2022-12-08T13:07:53.326Z,4.31
2022-12-08T13:08:53.255Z,4.30
2022-12-08T13:09:53.217Z,4.30
2022-12-08T13:10:53.280Z,4.28
2022-12-08T13:11:53.215Z,4.28
2022-12-08T13:12:53.173Z,4.28
2022-12-08T13:13:53.153Z,4.28
2022-12-08T13:14:53.222Z,4.28
2022-12-08T13:15:53.144Z,4.24
2022-12-08T13:16:53.214Z,4.22
2022-12-08T13:17:53.120Z,4.22
2022-12-08T13:18:53.134Z,4.20
2022-12-08T13:19:53.151Z,4.19
2022-12-08T13:20:53.116Z,4.19